createdAt,value
2019-01-26T00:00:38.363Z,50.67
2019-01-26T00:03:06.507Z,53.28
2019-01-26T00:05:35.112Z,53.28
2019-01-26T00:08:03.858Z,55.80
2019-01-26T00:10:32.339Z,51.48
2019-01-26T00:13:00.761Z,53.70
2019-01-26T00:15:29.263Z,54.13
2019-01-26T00:17:58.127Z,54.63
2019-01-26T00:20:26.223Z,57.08
2019-01-26T00:22:54.316Z,53.20
2019-01-26T00:25:23.373Z,54.63
2019-01-26T00:27:51.857Z,57.35
2019-01-26T00:30:20.740Z,58.13
2019-01-26T00:32:48.964Z,60.48
2019-01-26T00:35:17.300Z,54.83
2019-01-26T00:37:45.781Z,57.33
2019-01-26T00:40:14.056Z,54.30
2019-01-26T00:42:42.672Z,55.70
2019-01-26T00:45:11.471Z,57.73
2019-01-26T00:47:40.216Z,59.10
2019-01-26T00:50:08.551Z,55.73
2019-01-26T00:52:36.631Z,55.28
2019-01-26T00:55:05.704Z,55.48
2019-01-26T00:57:34.557Z,55.38
2019-01-26T01:00:03.008Z,54.53
2019-01-26T01:02:32.032Z,54.58
2019-01-26T01:05:00.516Z,54.23
2019-01-26T01:07:29.195Z,56.45
2019-01-26T01:09:57.199Z,54.58
2019-01-26T01:12:25.824Z,56.25
2019-01-26T01:14:53.970Z,54.97
2019-01-26T01:17:22.723Z,54.55
2019-01-26T01:19:51.758Z,52.62
2019-01-26T01:22:19.854Z,57.05
2019-01-26T01:24:48.264Z,53.20
2019-01-26T01:27:16.412Z,51.53
2019-01-26T01:29:45.315Z,51.25
2019-01-26T01:32:13.431Z,54.80
2019-01-26T01:34:41.652Z,55.00
2019-01-26T01:37:09.720Z,52.30
2019-01-26T01:39:38.443Z,54.18
2019-01-26T01:42:06.546Z,50.20
2019-01-26T01:44:34.621Z,51.50
2019-01-26T01:47:02.835Z,51.05
2019-01-26T01:49:31.488Z,50.37
2019-01-26T01:51:59.627Z,50.67
2019-01-26T01:54:28.157Z,48.90
2019-01-26T01:56:56.794Z,49.42
2019-01-26T01:59:24.840Z,50.00
2019-01-26T02:01:52.844Z,48.42
2019-01-26T02:04:21.349Z,49.15
2019-01-26T02:06:49.480Z,52.67
2019-01-26T02:09:17.684Z,48.70
2019-01-26T02:11:46.895Z,48.90
2019-01-26T02:14:16.096Z,51.88
2019-01-26T02:16:50.082Z,46.15
2019-01-26T02:19:15.179Z,48.05
2019-01-26T02:21:43.311Z,51.28
2019-01-26T02:24:12.008Z,48.28
2019-01-26T02:26:40.194Z,47.97
2019-01-26T02:29:08.306Z,50.85
2019-01-26T02:31:36.857Z,47.40
2019-01-26T02:34:05.211Z,50.63
2019-01-26T02:36:33.755Z,52.65
2019-01-26T02:39:01.867Z,48.33
2019-01-26T02:41:32.252Z,50.80
2019-01-26T02:44:00.699Z,50.12
2019-01-26T02:46:28.845Z,48.90
2019-01-26T02:48:56.912Z,52.55
2019-01-26T02:51:25.471Z,53.75
2019-01-26T02:53:53.747Z,52.87
2019-01-26T02:56:21.851Z,54.75
2019-01-26T02:58:50.504Z,54.63
2019-01-26T03:01:18.979Z,54.95
2019-01-26T03:03:47.120Z,59.83
2019-01-26T03:06:15.920Z,58.60
2019-01-26T03:08:44.371Z,56.13
2019-01-26T03:11:13.171Z,59.45
2019-01-26T03:13:41.624Z,57.97
2019-01-26T03:16:09.819Z,62.58
2019-01-26T03:18:37.865Z,63.13
2019-01-26T03:21:06.333Z,56.50
2019-01-26T03:23:36.258Z,58.35
2019-01-26T03:26:04.525Z,53.40
2019-01-26T03:28:32.901Z,56.58
2019-01-26T03:31:03.396Z,50.23
2019-01-26T03:33:31.316Z,51.85
2019-01-26T03:35:59.648Z,47.98
2019-01-26T03:38:28.138Z,50.48
2019-01-26T03:40:56.252Z,55.65
2019-01-26T03:43:24.411Z,47.95
2019-01-26T03:45:53.332Z,45.75
2019-01-26T03:48:22.286Z,49.35
2019-01-26T03:50:50.795Z,51.00
2019-01-26T03:53:18.890Z,48.63
2019-01-26T03:55:46.983Z,44.80
2019-01-26T03:58:15.099Z,41.80
2019-01-26T04:00:43.123Z,39.88
2019-01-26T04:03:11.237Z,38.15
2019-01-26T04:05:39.699Z,46.05
2019-01-26T04:08:08.287Z,41.60
2019-01-26T04:10:37.462Z,40.70
2019-01-26T04:13:06.049Z,42.78
2019-01-26T04:15:35.218Z,44.50
2019-01-26T04:18:03.597Z,44.20
2019-01-26T04:20:32.310Z,46.63
2019-01-26T04:23:01.400Z,45.78
2019-01-26T04:25:29.543Z,52.67
2019-01-26T04:27:57.792Z,58.73
2019-01-26T04:30:26.666Z,52.03
2019-01-26T04:32:55.228Z,53.38
2019-01-26T04:35:23.382Z,57.98
2019-01-26T04:37:52.132Z,60.88
2019-01-26T04:40:21.923Z,75.15
2019-01-26T04:42:50.004Z,77.67
2019-01-26T04:45:22.655Z,99.70
2019-01-26T04:47:50.799Z,73.13
2019-01-26T04:50:19.635Z,64.50
2019-01-26T04:52:48.205Z,116.97
2019-01-26T04:55:18.581Z,120.10
2019-01-26T04:57:48.685Z,65.92
2019-01-26T05:00:20.920Z,106.00
2019-01-26T05:02:49.888Z,113.77
2019-01-26T05:05:18.032Z,109.70
2019-01-26T05:07:46.956Z,91.00
2019-01-26T05:10:16.236Z,96.70
2019-01-26T05:12:44.992Z,102.67
2019-01-26T05:15:13.946Z,99.00
2019-01-26T05:17:42.150Z,81.20
2019-01-26T05:20:12.905Z,89.65
2019-01-26T05:22:41.403Z,93.60
2019-01-26T05:25:09.834Z,108.75
2019-01-26T05:27:38.063Z,126.03
2019-01-26T05:30:08.059Z,137.10
2019-01-26T05:32:38.060Z,148.53
2019-01-26T05:35:06.623Z,85.07
2019-01-26T05:37:35.157Z,250.20
2019-01-26T05:40:03.236Z,144.05
2019-01-26T05:42:32.388Z,91.70
2019-01-26T05:45:01.174Z,101.40
2019-01-26T05:47:29.688Z,81.78
2019-01-26T05:49:58.157Z,145.90
2019-01-26T05:52:26.346Z,124.00
2019-01-26T05:54:55.073Z,99.03
2019-01-26T05:57:23.513Z,135.25
2019-01-26T05:59:51.960Z,109.15
2019-01-26T06:02:20.928Z,116.35
2019-01-26T06:04:49.259Z,118.60
2019-01-26T06:07:17.540Z,185.27
2019-01-26T06:09:45.999Z,132.35
2019-01-26T06:12:14.523Z,111.52
2019-01-26T06:14:44.176Z,231.65
2019-01-26T06:17:12.405Z,225.33
2019-01-26T06:19:40.579Z,283.25
2019-01-26T06:22:09.004Z,251.00
2019-01-26T06:24:37.692Z,326.03
2019-01-26T06:27:06.131Z,391.65
2019-01-26T06:29:34.860Z,410.57
2019-01-26T06:32:02.974Z,340.85
2019-01-26T06:34:31.311Z,306.45
2019-01-26T06:36:59.357Z,336.45
2019-01-26T06:39:28.008Z,307.48
2019-01-26T06:41:56.307Z,209.05
2019-01-26T06:44:25.303Z,537.72
2019-01-26T06:46:54.232Z,339.68
2019-01-26T06:49:22.903Z,386.82
2019-01-26T06:51:54.113Z,411.73
2019-01-26T06:54:23.024Z,380.65
2019-01-26T06:56:51.289Z,289.93
2019-01-26T06:59:19.440Z,324.23
2019-01-26T07:01:47.669Z,277.98
2019-01-26T07:04:24.201Z,449.73
2019-01-26T07:07:10.093Z,278.90
2019-01-26T07:09:38.179Z,346.00
2019-01-26T07:12:06.227Z,232.18
2019-01-26T07:14:34.879Z,414.43
2019-01-26T07:17:03.001Z,162.27
2019-01-26T07:19:31.471Z,249.92
2019-01-26T07:21:59.553Z,238.72
2019-01-26T07:24:27.725Z,113.47
2019-01-26T07:26:55.989Z,184.07
2019-01-26T07:29:24.662Z,96.25
2019-01-26T07:31:53.216Z,191.73
2019-01-26T07:34:21.243Z,214.70
2019-01-26T07:36:49.312Z,173.37
2019-01-26T07:39:17.748Z,322.80
2019-01-26T07:41:46.049Z,265.00
2019-01-26T07:44:14.561Z,150.20
2019-01-26T07:46:44.649Z,327.80
2019-01-26T07:49:12.790Z,193.80
2019-01-26T07:51:41.467Z,151.05
2019-01-26T07:54:11.995Z,145.65
2019-01-26T07:56:40.387Z,275.55
2019-01-26T07:59:09.395Z,376.02
2019-01-26T08:01:37.498Z,154.63
2019-01-26T08:04:05.632Z,90.22
2019-01-26T08:06:37.752Z,181.80
2019-01-26T08:09:07.823Z,112.17
2019-01-26T08:11:36.051Z,114.92
2019-01-26T08:14:04.788Z,185.60
2019-01-26T08:16:33.373Z,167.60
2019-01-26T08:19:01.957Z,141.15
2019-01-26T08:21:30.459Z,105.43
2019-01-26T08:23:58.580Z,138.32
2019-01-26T08:26:26.735Z,171.22
2019-01-26T08:28:54.828Z,165.62
2019-01-26T08:31:23.235Z,153.15
2019-01-26T08:33:52.593Z,210.43
2019-01-26T08:36:20.747Z,166.90
2019-01-26T08:38:48.905Z,155.30
2019-01-26T08:41:17.556Z,110.83
2019-01-26T08:43:45.843Z,240.87
2019-01-26T08:46:14.454Z,334.32
2019-01-26T08:48:43.039Z,207.65
2019-01-26T08:51:11.227Z,126.63
2019-01-26T08:53:39.422Z,142.35
2019-01-26T08:56:08.106Z,183.45
2019-01-26T08:58:36.264Z,245.93
2019-01-26T09:01:04.805Z,100.97
2019-01-26T09:03:51.881Z,89.95
2019-01-26T09:06:27.604Z,83.42
2019-01-26T09:08:55.775Z,95.03
2019-01-26T09:11:23.855Z,132.85
2019-01-26T09:13:52.300Z,108.52
2019-01-26T09:16:20.418Z,55.50
2019-01-26T09:18:48.970Z,48.60
2019-01-26T09:21:17.441Z,43.68
2019-01-26T09:23:45.938Z,42.25
2019-01-26T09:26:14.491Z,44.25
2019-01-26T09:28:43.779Z,37.78
2019-01-26T09:31:12.497Z,37.67
2019-01-26T09:33:40.619Z,36.65
2019-01-26T09:36:09.157Z,37.63
2019-01-26T09:38:37.615Z,35.85
2019-01-26T09:41:05.847Z,32.88
2019-01-26T09:43:34.638Z,33.92
2019-01-26T09:46:02.972Z,32.00
2019-01-26T09:48:31.644Z,37.97
2019-01-26T09:50:59.794Z,33.67
2019-01-26T09:53:28.213Z,34.38
2019-01-26T09:55:56.994Z,32.70
2019-01-26T09:58:25.581Z,32.97
2019-01-26T10:00:53.801Z,36.68
2019-01-26T10:03:22.712Z,33.75
2019-01-26T10:05:50.972Z,35.00
2019-01-26T10:08:19.061Z,31.95
2019-01-26T10:10:47.992Z,29.70
2019-01-26T10:13:17.920Z,28.43
2019-01-26T10:15:46.246Z,27.10
2019-01-26T10:18:15.492Z,24.72
2019-01-26T10:20:43.892Z,28.87
2019-01-26T10:23:12.628Z,29.15
2019-01-26T10:25:41.140Z,24.80
2019-01-26T10:28:09.301Z,28.95
2019-01-26T10:30:51.027Z,29.12
2019-01-26T10:33:19.219Z,25.63
2019-01-26T10:36:06.703Z,33.15
2019-01-26T10:38:38.097Z,26.90
2019-01-26T10:41:37.421Z,25.43
2019-01-26T10:44:05.832Z,26.73
2019-01-26T10:46:33.909Z,27.13
2019-01-26T10:49:02.057Z,27.37
2019-01-26T10:51:30.676Z,27.85
2019-01-26T10:53:58.809Z,23.95
2019-01-26T10:56:27.327Z,28.35
2019-01-26T10:58:56.326Z,25.95
2019-01-26T11:01:24.667Z,25.35
2019-01-26T11:03:52.763Z,23.65
2019-01-26T11:06:21.210Z,21.25
2019-01-26T11:08:49.797Z,22.95
2019-01-26T11:11:18.607Z,26.48
2019-01-26T11:13:47.129Z,23.47
2019-01-26T11:16:15.327Z,20.35
2019-01-26T11:18:43.404Z,22.03
2019-01-26T11:21:12.147Z,21.57
2019-01-26T11:23:40.915Z,18.27
2019-01-26T11:26:09.824Z,21.02
2019-01-26T11:28:38.051Z,19.37
2019-01-26T11:31:06.644Z,19.40
2019-01-26T11:33:34.849Z,19.47
2019-01-26T11:36:03.080Z,19.17
2019-01-26T11:38:32.093Z,18.12
2019-01-26T11:41:00.365Z,15.28
2019-01-26T11:43:28.909Z,21.20
2019-01-26T11:46:31.837Z,14.13
2019-01-26T11:49:00.762Z,17.03
2019-01-26T11:51:54.301Z,14.15
2019-01-26T11:54:22.380Z,12.73
2019-01-26T11:56:56.748Z,14.58
2019-01-26T11:59:25.257Z,14.50
2019-01-26T12:02:30.600Z,16.80
2019-01-26T12:05:06.660Z,13.83
2019-01-26T12:07:36.068Z,14.47
2019-01-26T12:10:05.015Z,12.73
2019-01-26T12:12:33.477Z,12.33
2019-01-26T12:15:01.799Z,12.45
2019-01-26T12:17:30.136Z,12.35
2019-01-26T12:19:58.163Z,12.23
2019-01-26T12:22:27.921Z,13.68
2019-01-26T12:24:56.420Z,13.72
2019-01-26T12:27:25.105Z,12.77
2019-01-26T12:29:53.173Z,12.88
2019-01-26T12:32:21.600Z,12.70
2019-01-26T12:34:50.139Z,22.17
2019-01-26T12:37:19.364Z,14.70
2019-01-26T12:39:47.904Z,12.30
2019-01-26T12:42:16.036Z,11.97
2019-01-26T12:44:44.784Z,11.57
2019-01-26T12:47:17.054Z,14.67
2019-01-26T12:49:43.836Z,18.65
2019-01-26T12:52:12.270Z,14.40
2019-01-26T12:54:40.779Z,13.50
2019-01-26T12:57:09.244Z,13.50
2019-01-26T12:59:37.349Z,12.70
2019-01-26T13:02:06.262Z,12.00
2019-01-26T13:04:34.956Z,13.85
2019-01-26T13:07:03.092Z,13.45
2019-01-26T13:09:31.199Z,13.25
2019-01-26T13:11:59.632Z,12.23
2019-01-26T13:14:27.769Z,13.50
2019-01-26T13:16:55.905Z,11.90
2019-01-26T13:19:24.405Z,9.63
2019-01-26T13:21:52.575Z,11.23
2019-01-26T13:24:20.985Z,13.85
2019-01-26T13:26:49.741Z,12.88
2019-01-26T13:29:19.119Z,13.50
2019-01-26T13:31:47.543Z,13.38
2019-01-26T13:34:15.743Z,13.50
2019-01-26T13:36:46.012Z,13.95
2019-01-26T13:39:16.287Z,13.32
2019-01-26T13:41:44.416Z,12.55
2019-01-26T13:44:13.196Z,13.62
2019-01-26T13:46:41.636Z,13.60
2019-01-26T13:49:10.258Z,14.60
2019-01-26T13:51:38.766Z,14.38
2019-01-26T13:54:06.804Z,14.40
2019-01-26T13:56:35.971Z,13.78
2019-01-26T13:59:04.079Z,17.75
2019-01-26T14:01:32.592Z,15.83
2019-01-26T14:04:01.257Z,13.10
2019-01-26T14:06:31.114Z,12.47
2019-01-26T14:09:00.677Z,11.50
2019-01-26T14:11:29.225Z,12.27
2019-01-26T14:13:58.083Z,12.18
2019-01-26T14:16:26.081Z,12.78
2019-01-26T14:18:54.564Z,13.30
2019-01-26T14:21:22.763Z,11.95
2019-01-26T14:23:50.933Z,10.80
2019-01-26T14:26:19.290Z,9.83
2019-01-26T14:28:47.730Z,9.65
2019-01-26T14:31:15.896Z,12.18
2019-01-26T14:33:45.860Z,8.40
2019-01-26T14:36:14.605Z,11.07
2019-01-26T14:38:42.753Z,9.13
2019-01-26T14:41:11.455Z,9.13
2019-01-26T14:43:39.728Z,10.00
2019-01-26T14:46:08.417Z,11.15
2019-01-26T14:48:36.997Z,11.68
2019-01-26T14:51:05.267Z,11.28
2019-01-26T14:53:33.864Z,10.32
2019-01-26T14:56:03.133Z,11.48
2019-01-26T14:58:33.280Z,17.67
2019-01-26T15:01:01.864Z,10.53
2019-01-26T15:03:30.303Z,12.15
2019-01-26T15:05:58.806Z,10.13
2019-01-26T15:08:27.023Z,10.53
2019-01-26T15:10:55.651Z,13.58
2019-01-26T15:13:24.030Z,18.40
2019-01-26T15:15:52.617Z,12.85
2019-01-26T15:18:21.548Z,12.80
2019-01-26T15:20:50.436Z,14.25
2019-01-26T15:23:18.532Z,13.03
2019-01-26T15:25:47.165Z,14.43
2019-01-26T15:28:15.393Z,13.22
2019-01-26T15:30:43.940Z,13.15
2019-01-26T15:33:12.558Z,12.75
2019-01-26T15:35:41.025Z,15.32
2019-01-26T15:38:09.961Z,10.30
2019-01-26T15:40:38.290Z,16.30
2019-01-26T15:43:06.847Z,16.50
2019-01-26T15:45:37.271Z,22.97
2019-01-26T15:48:06.479Z,22.98
2019-01-26T15:50:34.777Z,24.12
2019-01-26T15:53:03.342Z,35.30
2019-01-26T15:55:31.891Z,22.27
2019-01-26T15:58:00.653Z,17.40
2019-01-26T16:00:29.829Z,32.08
2019-01-26T16:02:57.953Z,18.97
2019-01-26T16:05:26.081Z,18.25
2019-01-26T16:07:54.341Z,11.35
2019-01-26T16:10:22.924Z,12.80
2019-01-26T16:12:51.531Z,35.38
2019-01-26T16:15:20.804Z,11.38
2019-01-26T16:17:49.584Z,19.53
2019-01-26T16:20:20.424Z,15.50
2019-01-26T16:22:48.805Z,18.27
2019-01-26T16:25:17.681Z,17.33
2019-01-26T16:27:46.676Z,9.10
2019-01-26T16:30:16.686Z,8.90
2019-01-26T16:32:45.200Z,12.37
2019-01-26T16:35:13.955Z,12.20
2019-01-26T16:37:42.072Z,8.93
2019-01-26T16:40:12.117Z,10.15
2019-01-26T16:42:40.759Z,17.02
2019-01-26T16:45:11.137Z,12.40
2019-01-26T16:47:39.623Z,16.00
2019-01-26T16:50:09.399Z,12.63
2019-01-26T16:52:37.942Z,12.82
2019-01-26T16:55:06.664Z,17.40
2019-01-26T16:57:34.893Z,23.83
2019-01-26T17:00:03.033Z,28.30
2019-01-26T17:02:31.451Z,9.47
2019-01-26T17:05:00.186Z,21.85
2019-01-26T17:07:28.219Z,23.70
2019-01-26T17:09:57.004Z,18.50
2019-01-26T17:12:25.232Z,16.20
2019-01-26T17:14:53.673Z,23.80
2019-01-26T17:17:22.553Z,18.48
2019-01-26T17:19:52.981Z,18.20
2019-01-26T17:22:21.574Z,20.45
2019-01-26T17:24:49.726Z,21.00
2019-01-26T17:27:18.624Z,21.60
2019-01-26T17:29:46.969Z,24.45
2019-01-26T17:32:15.598Z,18.37
2019-01-26T17:34:43.731Z,37.48
2019-01-26T17:37:11.959Z,30.88
2019-01-26T17:39:40.812Z,34.30
2019-01-26T17:42:10.432Z,62.88
2019-01-26T17:44:38.653Z,61.42
2019-01-26T17:47:07.178Z,23.85
2019-01-26T17:49:35.265Z,44.77
2019-01-26T17:52:03.339Z,28.25
2019-01-26T17:54:31.960Z,32.70
2019-01-26T17:57:00.024Z,46.37
2019-01-26T17:59:28.579Z,26.05
2019-01-26T18:01:56.808Z,39.53
2019-01-26T18:04:24.987Z,48.45
2019-01-26T18:06:53.472Z,52.10
2019-01-26T18:09:23.481Z,45.43
2019-01-26T18:11:52.011Z,68.52
2019-01-26T18:14:20.216Z,46.30
2019-01-26T18:16:48.667Z,33.35
2019-01-26T18:19:17.052Z,33.88
2019-01-26T18:21:45.689Z,44.40
2019-01-26T18:24:14.068Z,35.52
2019-01-26T18:26:42.498Z,32.47
2019-01-26T18:29:11.066Z,17.60
2019-01-26T18:31:41.377Z,32.40
2019-01-26T18:34:09.915Z,51.30
2019-01-26T18:36:38.355Z,36.97
2019-01-26T18:39:08.730Z,23.50
2019-01-26T18:41:37.010Z,22.55
2019-01-26T18:44:05.555Z,23.97
2019-01-26T18:46:34.150Z,25.45
2019-01-26T18:49:02.261Z,28.80
2019-01-26T18:51:31.408Z,26.65
2019-01-26T18:53:59.539Z,15.35
2019-01-26T18:56:28.008Z,15.68
2019-01-26T18:58:56.182Z,16.63
2019-01-26T19:01:24.271Z,16.25
2019-01-26T19:04:00.987Z,13.20
2019-01-26T19:06:30.193Z,12.50
2019-01-26T19:08:58.324Z,14.10
2019-01-26T19:11:28.172Z,7.20
2019-01-26T19:13:56.340Z,6.60
2019-01-26T19:16:24.989Z,5.67
2019-01-26T19:18:53.144Z,5.70
2019-01-26T19:21:21.990Z,4.30
2019-01-26T19:23:50.153Z,4.35
2019-01-26T19:26:18.739Z,4.70
2019-01-26T19:28:46.884Z,4.05
2019-01-26T19:31:17.033Z,7.10
2019-01-26T19:33:47.126Z,5.97
2019-01-26T19:36:15.141Z,7.65
2019-01-26T19:38:44.091Z,3.50
2019-01-26T19:41:12.508Z,5.90
2019-01-26T19:43:41.312Z,4.45
2019-01-26T19:46:09.674Z,4.45
2019-01-26T19:48:37.882Z,4.35
2019-01-26T19:51:09.859Z,6.43
2019-01-26T19:53:36.078Z,4.50
2019-01-26T19:56:04.569Z,3.02
2019-01-26T19:58:33.012Z,4.00
2019-01-26T20:01:01.733Z,4.83
2019-01-26T20:03:31.520Z,6.60
2019-01-26T20:05:59.872Z,3.60
2019-01-26T20:08:28.471Z,4.60
2019-01-26T20:10:57.812Z,5.62
2019-01-26T20:13:25.988Z,3.30
2019-01-26T20:15:56.274Z,3.60
2019-01-26T20:18:25.270Z,5.65
2019-01-26T20:20:53.419Z,4.75
2019-01-26T20:23:21.964Z,3.60
2019-01-26T20:25:50.172Z,5.70
2019-01-26T20:28:18.294Z,5.20
2019-01-26T20:30:46.604Z,4.55
2019-01-26T20:33:15.440Z,6.00
2019-01-26T20:35:44.075Z,12.98
2019-01-26T20:38:12.173Z,15.35
2019-01-26T20:40:40.413Z,16.17
2019-01-26T20:43:08.574Z,19.00
2019-01-26T20:45:37.127Z,7.63
2019-01-26T20:48:05.701Z,22.95
2019-01-26T20:50:34.097Z,23.90
2019-01-26T20:53:02.884Z,27.05
2019-01-26T20:55:31.544Z,46.60
2019-01-26T20:57:59.698Z,33.17
2019-01-26T21:00:29.265Z,52.93
2019-01-26T21:02:57.467Z,26.17
2019-01-26T21:05:25.899Z,19.23
2019-01-26T21:07:54.244Z,75.50
2019-01-26T21:10:23.792Z,58.00
2019-01-26T21:12:52.375Z,87.85
2019-01-26T21:15:21.037Z,16.70
2019-01-26T21:17:49.293Z,33.63
2019-01-26T21:20:17.880Z,23.27
2019-01-26T21:22:46.416Z,29.35
2019-01-26T21:25:15.197Z,19.20
2019-01-26T21:27:43.676Z,17.25
2019-01-26T21:30:16.852Z,17.73
2019-01-26T21:32:44.897Z,18.65
2019-01-26T21:35:13.404Z,19.80
2019-01-26T21:37:41.471Z,19.47
2019-01-26T21:40:11.965Z,20.20
2019-01-26T21:42:40.713Z,18.30
2019-01-26T21:45:09.330Z,19.05
2019-01-26T21:47:38.192Z,20.43
2019-01-26T21:50:08.956Z,19.32
2019-01-26T21:52:41.129Z,20.40
2019-01-26T21:55:08.031Z,20.90
2019-01-26T21:57:36.200Z,23.02
2019-01-26T22:00:06.235Z,23.62
2019-01-26T22:02:34.691Z,22.15
2019-01-26T22:05:03.131Z,22.95
2019-01-26T22:07:31.408Z,23.75
2019-01-26T22:09:59.875Z,26.60
2019-01-26T22:12:28.735Z,24.47
2019-01-26T22:14:56.919Z,28.20
2019-01-26T22:17:25.048Z,25.05
2019-01-26T22:19:53.691Z,24.35
2019-01-26T22:22:22.169Z,26.50
2019-01-26T22:24:52.173Z,27.32
2019-01-26T22:27:20.271Z,29.20
2019-01-26T22:29:48.412Z,30.10
2019-01-26T22:32:16.563Z,28.90
2019-01-26T22:34:44.951Z,29.82
2019-01-26T22:37:13.657Z,31.40
2019-01-26T22:39:42.180Z,33.03
2019-01-26T22:42:10.915Z,32.50
2019-01-26T22:44:39.557Z,29.35
2019-01-26T22:47:07.716Z,30.90
2019-01-26T22:49:35.794Z,31.03
2019-01-26T22:52:04.558Z,34.90
2019-01-26T22:54:33.217Z,33.38
2019-01-26T22:57:02.996Z,32.75
2019-01-26T22:59:31.485Z,35.58
2019-01-26T23:01:59.603Z,32.60
2019-01-26T23:04:49.937Z,30.50
2019-01-26T23:07:35.984Z,34.33
2019-01-26T23:10:22.021Z,34.60
2019-01-26T23:13:15.398Z,35.85
2019-01-26T23:16:02.318Z,37.10
2019-01-26T23:18:48.867Z,36.28
2019-01-26T23:21:26.775Z,36.73
2019-01-26T23:24:18.237Z,41.03
2019-01-26T23:27:08.031Z,36.75
2019-01-26T23:29:45.317Z,38.53
2019-01-26T23:32:13.516Z,38.78
2019-01-26T23:34:41.744Z,39.18
2019-01-26T23:37:10.033Z,41.73
2019-01-26T23:39:38.307Z,37.80
2019-01-26T23:42:06.675Z,37.63
2019-01-26T23:44:35.388Z,38.90
2019-01-26T23:47:04.016Z,39.23
2019-01-26T23:49:32.129Z,38.97
2019-01-26T23:52:00.396Z,36.38
2019-01-26T23:54:28.604Z,41.25
2019-01-26T23:56:56.962Z,37.33
2019-01-26T23:59:25.458Z,37.70
